Time;durP1;ratioP1;P1;durP2;ratioP2;P2;SDS_P1;SDS_P2;PMS_P1;PMS_P2;Temp;Humidity;BMP_temperature;BMP_pressure;BME280_temperature;BME280_humidity;BME280_pressure;Samples;Min_cycle;Max_cycle;Signal;HPM_P1;HPM_P2
2023/09/26 00:00:08;;;;;;;67.05;63.40;;;18.90;99.90;;;;;;5050947;28;20028;-72
2023/09/26 00:02:35;;;;;;;67.78;64.13;;;18.80;99.90;;;;;;5048256;28;20037;-72
2023/09/26 00:05:07;;;;;;;64.90;61.10;;;18.90;99.90;;;;;;5050694;28;20036;-72
2023/09/26 00:07:33;;;;;;;69.07;65.38;;;18.80;99.90;;;;;;5051072;28;20545;-72
2023/09/26 00:10:00;;;;;;;73.28;69.22;;;18.80;99.90;;;;;;5050602;28;20510;-72
2023/09/26 00:12:27;;;;;;;57.38;53.75;;;18.70;99.90;;;;;;5049972;28;20040;-72
2023/09/26 00:14:54;;;;;;;90.65;85.85;;;18.70;99.90;;;;;;5051346;28;20048;-72
2023/09/26 00:17:20;;;;;;;69.32;65.63;;;18.70;99.90;;;;;;5050320;28;20037;-72
2023/09/26 00:19:46;;;;;;;100.78;95.38;;;18.70;99.90;;;;;;5051300;28;20029;-72
2023/09/26 00:22:13;;;;;;;73.00;68.93;;;18.70;99.90;;;;;;5050134;28;20434;-72
2023/09/26 00:24:39;;;;;;;68.45;64.68;;;18.70;99.90;;;;;;5050379;28;20040;-72
2023/09/26 00:27:06;;;;;;;67.63;63.75;;;18.50;99.90;;;;;;5049756;28;20045;-72
2023/09/26 00:29:33;;;;;;;72.70;68.78;;;18.50;99.90;;;;;;5052052;28;20419;-72
2023/09/26 00:31:59;;;;;;;72.30;68.50;;;18.50;99.90;;;;;;5051881;28;20025;-72
2023/09/26 00:34:25;;;;;;;81.00;76.78;;;18.60;99.90;;;;;;5053566;28;20530;-72
2023/09/26 00:36:52;;;;;;;66.70;62.95;;;18.60;99.90;;;;;;5053332;28;20033;-72
2023/09/26 00:39:18;;;;;;;81.28;76.93;;;18.70;99.90;;;;;;5054842;28;20040;-72
2023/09/26 00:41:44;;;;;;;137.13;130.20;;;18.70;99.90;;;;;;5054040;28;20033;-72
2023/09/26 00:44:12;;;;;;;97.80;92.40;;;18.70;99.90;;;;;;5054415;28;20471;-72
2023/09/26 00:46:39;;;;;;;76.55;72.45;;;18.70;99.90;;;;;;5054008;28;20487;-71
2023/09/26 00:49:06;;;;;;;61.83;58.33;;;18.70;99.90;;;;;;5053931;28;20053;-72
2023/09/26 00:51:32;;;;;;;87.80;83.25;;;18.60;99.90;;;;;;5054539;28;20495;-72
2023/09/26 00:53:58;;;;;;;58.50;55.17;;;18.60;99.90;;;;;;5035643;28;20037;-72
2023/09/26 00:56:24;;;;;;;60.55;57.03;;;18.50;99.90;;;;;;5060048;28;20490;-72
2023/09/26 00:58:51;;;;;;;62.47;58.80;;;18.50;99.90;;;;;;5054560;28;20052;-72
2023/09/26 01:01:19;;;;;;;66.82;63.22;;;18.50;99.90;;;;;;5052995;28;20040;-72
2023/09/26 01:03:45;;;;;;;59.20;55.67;;;18.50;99.90;;;;;;5052444;28;20032;-72
2023/09/26 01:06:11;;;;;;;59.35;55.58;;;18.40;99.90;;;;;;5052932;28;20036;-72
2023/09/26 01:08:37;;;;;;;58.60;55.35;;;18.40;99.90;;;;;;5057136;28;20037;-72
2023/09/26 01:11:04;;;;;;;57.80;54.60;;;18.40;99.90;;;;;;5052321;28;20037;-72
2023/09/26 01:13:30;;;;;;;55.90;52.80;;;18.30;99.90;;;;;;5053182;28;20484;-72
2023/09/26 01:15:56;;;;;;;61.20;57.72;;;18.30;99.90;;;;;;5053277;28;20033;-72
2023/09/26 01:18:23;;;;;;;72.80;68.80;;;18.30;99.90;;;;;;5053643;28;20037;-72
2023/09/26 01:20:49;;;;;;;54.50;51.33;;;18.30;99.90;;;;;;5055264;28;20037;-72
2023/09/26 01:23:16;;;;;;;60.50;57.03;;;18.30;99.90;;;;;;5052030;28;20089;-72
2023/09/26 01:25:42;;;;;;;62.47;59.00;;;18.30;99.90;;;;;;5051933;28;20024;-71
2023/09/26 01:28:09;;;;;;;95.93;90.40;;;18.30;99.90;;;;;;5053456;28;20051;-72
2023/09/26 01:30:39;;;;;;;51.13;48.13;;;18.30;99.90;;;;;;5053395;28;20052;-72
2023/09/26 01:33:08;;;;;;;56.75;53.45;;;18.30;99.90;;;;;;5052242;28;20037;-72
2023/09/26 01:35:34;;;;;;;67.32;63.47;;;18.30;99.90;;;;;;5051968;28;20522;-72
2023/09/26 01:38:00;;;;;;;69.85;66.07;;;18.30;99.90;;;;;;5064645;28;20120;-72
2023/09/26 01:40:27;;;;;;;71.60;67.72;;;18.30;99.90;;;;;;5052631;28;20503;-71
2023/09/26 01:42:53;;;;;;;50.03;47.25;;;18.20;99.90;;;;;;5051466;28;20403;-72
2023/09/26 01:45:19;;;;;;;57.15;53.90;;;18.20;99.90;;;;;;5062366;28;20391;-72
2023/09/26 01:47:49;;;;;;;90.15;85.28;;;18.20;99.90;;;;;;5052984;28;20041;-72
2023/09/26 01:50:16;;;;;;;54.93;51.73;;;18.10;99.90;;;;;;5052503;28;20032;-72
2023/09/26 01:52:42;;;;;;;62.35;58.70;;;18.00;99.90;;;;;;5051924;28;20045;-72
2023/09/26 01:55:11;;;;;;;87.30;82.72;;;17.80;99.90;;;;;;5040129;28;20028;-72
2023/09/26 01:57:37;;;;;;;62.38;58.75;;;17.80;99.90;;;;;;5046808;28;20486;-72
2023/09/26 02:00:10;;;;;;;58.45;55.28;;;17.90;99.90;;;;;;5057200;28;20039;-72
2023/09/26 02:02:43;;;;;;;66.07;62.47;;;17.90;99.90;;;;;;5052662;28;20498;-72
2023/09/26 02:05:13;;;;;;;132.73;126.03;;;17.80;99.90;;;;;;5052084;28;20036;-72
2023/09/26 02:07:40;;;;;;;61.43;58.10;;;17.90;99.90;;;;;;5052769;28;20032;-72
2023/09/26 02:10:06;;;;;;;60.15;56.70;;;17.90;99.90;;;;;;5053268;28;20299;-72
2023/09/26 02:12:37;;;;;;;74.93;70.93;;;18.00;99.90;;;;;;5052845;28;20387;-72
2023/09/26 02:15:05;;;;;;;57.67;54.58;;;18.00;99.90;;;;;;5050585;28;20058;-70
2023/09/26 02:17:33;;;;;;;59.00;55.72;;;17.90;99.90;;;;;;5053159;28;20081;-72
2023/09/26 02:20:12;;;;;;;61.72;58.40;;;18.00;99.90;;;;;;5053727;28;20044;-72
2023/09/26 02:22:45;;;;;;;61.03;57.65;;;18.00;99.90;;;;;;5053612;28;20041;-72
2023/09/26 02:25:11;;;;;;;60.22;56.83;;;17.90;99.90;;;;;;5051388;28;20029;-73
2023/09/26 02:27:41;;;;;;;59.15;56.03;;;17.90;99.90;;;;;;5057235;28;20041;-72
2023/09/26 02:30:12;;;;;;;64.30;60.75;;;17.90;99.90;;;;;;5051851;28;20508;-71
2023/09/26 02:32:39;;;;;;;;;;;18.00;99.90;;;;;;5044235;28;20029;-72
2023/09/26 02:35:07;;;;;;;48.05;45.42;;;18.00;99.90;;;;;;5051058;28;19941;-72
2023/09/26 02:37:33;;;;;;;68.28;64.53;;;18.00;99.90;;;;;;5052031;28;20385;-72
2023/09/26 02:40:00;;;;;;;83.10;78.47;;;17.90;99.90;;;;;;5052017;28;20044;-72
2023/09/26 02:42:27;;;;;;;105.63;100.18;;;17.90;99.90;;;;;;5050913;28;20417;-72
2023/09/26 02:44:53;;;;;;;99.72;94.63;;;17.80;99.90;;;;;;5049739;28;20024;-72
2023/09/26 02:47:19;;;;;;;97.60;92.40;;;17.80;99.90;;;;;;5051090;28;20043;-72
2023/09/26 02:49:45;;;;;;;100.70;95.45;;;17.60;99.90;;;;;;5051608;28;20041;-71
2023/09/26 02:52:11;;;;;;;114.13;108.07;;;17.50;99.90;;;;;;5052187;28;20040;-72
2023/09/26 02:54:37;;;;;;;112.38;106.40;;;17.50;99.90;;;;;;5051556;28;20029;-72
2023/09/26 02:57:04;;;;;;;87.63;83.13;;;17.60;99.90;;;;;;5052069;28;20024;-72
2023/09/26 02:59:30;;;;;;;87.03;82.47;;;17.60;99.90;;;;;;5051411;28;20387;-72
2023/09/26 03:01:56;;;;;;;63.15;59.72;;;17.70;99.90;;;;;;5051002;28;20033;-72
2023/09/26 03:04:23;;;;;;;60.00;56.80;;;17.70;99.90;;;;;;5051296;28;20033;-71
2023/09/26 03:06:49;;;;;;;65.47;61.97;;;17.70;99.90;;;;;;5051350;28;20048;-72
2023/09/26 03:09:15;;;;;;;70.20;66.43;;;17.70;99.90;;;;;;5050780;28;20041;-72
2023/09/26 03:11:43;;;;;;;74.25;70.13;;;17.60;99.90;;;;;;5051881;28;20044;-72
2023/09/26 03:14:10;;;;;;;80.40;75.90;;;17.70;99.90;;;;;;5051677;28;20051;-72
2023/09/26 03:16:36;;;;;;;79.32;75.22;;;17.70;99.90;;;;;;5051702;28;20037;-72
2023/09/26 03:19:02;;;;;;;77.97;73.95;;;17.70;99.90;;;;;;5051912;28;20040;-71
2023/09/26 03:21:28;;;;;;;75.03;70.95;;;17.60;99.90;;;;;;5049557;28;20368;-72
2023/09/26 03:23:55;;;;;;;80.32;76.03;;;17.70;99.90;;;;;;5050515;28;20055;-72
2023/09/26 03:26:21;;;;;;;68.18;64.38;;;17.70;99.90;;;;;;5051312;28;20025;-71
2023/09/26 03:28:47;;;;;;;85.93;81.57;;;17.70;99.90;;;;;;5057419;28;20033;-72
2023/09/26 03:31:13;;;;;;;107.38;101.97;;;17.50;99.90;;;;;;5051240;28;20029;-72
2023/09/26 03:33:39;;;;;;;71.60;67.80;;;17.20;99.90;;;;;;5052385;28;20036;-72
2023/09/26 03:36:05;;;;;;;58.55;55.25;;;17.10;99.90;;;;;;5051938;28;20480;-72
2023/09/26 03:38:31;;;;;;;61.70;58.42;;;17.20;99.90;;;;;;5051341;28;20040;-72
2023/09/26 03:41:02;;;;;;;62.20;58.95;;;17.30;99.90;;;;;;5051362;28;20390;-72
2023/09/26 03:43:28;;;;;;;68.13;64.33;;;17.40;99.90;;;;;;5046308;28;20034;-72
2023/09/26 03:45:54;;;;;;;72.85;68.93;;;17.40;99.90;;;;;;5041717;28;20278;-72
2023/09/26 03:48:20;;;;;;;79.18;75.10;;;17.50;99.90;;;;;;5051271;28;20044;-71
2023/09/26 03:50:47;;;;;;;70.68;66.93;;;17.50;99.90;;;;;;5050927;28;20025;-72
2023/09/26 03:53:15;;;;;;;63.50;60.13;;;17.40;99.90;;;;;;5051730;28;20048;-72
2023/09/26 03:55:41;;;;;;;59.17;55.65;;;17.20;99.90;;;;;;5050944;28;20051;-71
2023/09/26 03:58:08;;;;;;;70.85;67.28;;;17.20;99.90;;;;;;5052720;28;20037;-72
2023/09/26 04:00:34;;;;;;;61.80;58.50;;;17.20;99.90;;;;;;5051535;28;20029;-72
2023/09/26 04:03:01;;;;;;;71.53;67.68;;;17.30;99.90;;;;;;5051703;28;20483;-72
2023/09/26 04:05:27;;;;;;;68.38;64.85;;;17.20;99.90;;;;;;5064496;28;20040;-74
2023/09/26 04:07:53;;;;;;;72.55;68.70;;;17.00;99.90;;;;;;5043471;28;20479;-72
2023/09/26 04:10:19;;;;;;;68.38;64.82;;;17.00;99.90;;;;;;5054845;28;20045;-72
2023/09/26 04:12:47;;;;;;;61.17;57.95;;;17.20;99.90;;;;;;5054027;28;20106;-72
2023/09/26 04:15:13;;;;;;;74.32;70.38;;;17.00;99.90;;;;;;5054619;28;20541;-71
2023/09/26 04:17:39;;;;;;;80.63;76.47;;;17.00;99.90;;;;;;5055461;28;20025;-72
2023/09/26 04:20:12;;;;;;;65.20;61.78;;;17.00;99.90;;;;;;5055624;28;20025;-72
2023/09/26 04:22:38;;;;;;;59.45;56.13;;;17.00;99.90;;;;;;5052844;28;20037;-72
2023/09/26 04:25:05;;;;;;;71.03;67.20;;;17.00;99.90;;;;;;5041378;28;20072;-72
2023/09/26 04:27:31;;;;;;;64.45;60.92;;;17.20;99.90;;;;;;5054743;28;20029;-72
2023/09/26 04:29:57;;;;;;;64.70;61.00;;;17.20;99.90;;;;;;5055235;28;20037;-71
2023/09/26 04:32:23;;;;;;;69.30;65.45;;;17.10;99.90;;;;;;5054617;28;20395;-71
2023/09/26 04:34:49;;;;;;;55.33;51.95;;;17.00;99.90;;;;;;5054931;28;20025;-72
2023/09/26 04:37:15;;;;;;;59.63;54.97;;;17.00;99.90;;;;;;5054848;28;20051;-72
2023/09/26 04:39:41;;;;;;;67.93;63.13;;;17.00;99.90;;;;;;5054824;28;20025;-71
2023/09/26 04:42:07;;;;;;;61.97;58.20;;;16.90;99.90;;;;;;5054879;28;20033;-72
2023/09/26 04:44:33;;;;;;;70.60;64.93;;;16.90;99.90;;;;;;5055239;28;20040;-72
2023/09/26 04:46:59;;;;;;;61.67;55.35;;;16.90;99.90;;;;;;5053748;28;20032;-72
2023/09/26 04:49:25;;;;;;;49.03;45.20;;;16.70;99.90;;;;;;5055002;28;20395;-72
2023/09/26 04:51:52;;;;;;;52.22;48.88;;;16.60;99.90;;;;;;5054529;28;20033;-72
2023/09/26 04:54:18;;;;;;;49.05;45.50;;;16.70;99.90;;;;;;5054458;28;20044;-72
2023/09/26 04:56:44;;;;;;;52.05;49.03;;;16.80;99.90;;;;;;5054322;28;20403;-72
2023/09/26 04:59:10;;;;;;;44.58;41.92;;;16.80;99.90;;;;;;5054704;28;20039;-72
2023/09/26 05:01:36;;;;;;;49.90;46.35;;;16.90;99.90;;;;;;5053841;28;20041;-72
2023/09/26 05:04:03;;;;;;;45.40;42.58;;;16.90;99.90;;;;;;5034587;28;20056;-72
2023/09/26 05:06:29;;;;;;;49.35;46.53;;;16.80;99.90;;;;;;5048848;28;20230;-72
2023/09/26 05:08:55;;;;;;;57.35;52.88;;;16.80;99.90;;;;;;5052841;28;20064;-72
2023/09/26 05:11:22;;;;;;;48.00;45.17;;;16.90;99.90;;;;;;5054175;28;20021;-72
2023/09/26 05:13:48;;;;;;;61.35;57.40;;;16.70;99.90;;;;;;5054552;28;20399;-72
2023/09/26 05:16:14;;;;;;;60.53;56.97;;;16.70;99.90;;;;;;5052318;28;20471;-72
2023/09/26 05:18:40;;;;;;;55.10;51.85;;;16.80;99.90;;;;;;5054070;28;20045;-72
2023/09/26 05:21:07;;;;;;;53.78;49.63;;;16.80;99.90;;;;;;5054072;28;20032;-72
2023/09/26 05:23:33;;;;;;;49.38;46.05;;;16.70;99.90;;;;;;5054077;28;20040;-72
2023/09/26 05:26:08;;;;;;;49.17;45.95;;;16.80;99.90;;;;;;5052371;28;20040;-72
2023/09/26 05:28:35;;;;;;;50.00;46.72;;;16.80;99.90;;;;;;5054364;28;20052;-72
2023/09/26 05:31:01;;;;;;;52.10;49.28;;;16.90;99.90;;;;;;5053439;28;20029;-70
2023/09/26 05:33:27;;;;;;;53.75;50.03;;;17.00;99.90;;;;;;5053248;28;20033;-72
2023/09/26 05:35:54;;;;;;;50.90;46.78;;;16.90;99.90;;;;;;5053613;28;20025;-72
2023/09/26 05:38:21;;;;;;;54.35;51.03;;;16.90;99.90;;;;;;5053571;28;20033;-70
2023/09/26 05:40:47;;;;;;;63.28;57.25;;;17.00;99.90;;;;;;5053592;28;20032;-72
2023/09/26 05:43:13;;;;;;;64.45;60.40;;;17.00;99.90;;;;;;5053803;28;20029;-72
2023/09/26 05:45:39;;;;;;;60.80;56.80;;;17.00;99.90;;;;;;5056589;28;20036;-72
2023/09/26 05:48:06;;;;;;;102.63;66.60;;;17.00;99.90;;;;;;5053650;28;20389;-72
2023/09/26 05:50:32;;;;;;;62.25;57.47;;;16.80;99.90;;;;;;5053664;28;20037;-72
2023/09/26 05:53:00;;;;;;;63.92;56.47;;;16.60;99.90;;;;;;5063793;28;20399;-72
2023/09/26 05:55:26;;;;;;;60.20;54.30;;;16.30;99.90;;;;;;5053089;28;20045;-72
2023/09/26 05:57:52;;;;;;;46.30;43.08;;;16.30;99.90;;;;;;5052597;28;20033;-72
2023/09/26 06:00:18;;;;;;;45.33;40.85;;;16.10;99.90;;;;;;5056421;28;20407;-71
2023/09/26 06:02:44;;;;;;;47.28;42.50;;;16.00;99.90;;;;;;5052444;28;20045;-72
2023/09/26 06:05:13;;;;;;;45.53;40.75;;;16.00;99.90;;;;;;5055377;28;20037;-72
2023/09/26 06:07:41;;;;;;;44.15;41.13;;;16.00;99.90;;;;;;5053164;28;20036;-72
2023/09/26 06:10:10;;;;;;;50.30;46.53;;;16.10;99.90;;;;;;5053957;28;20053;-72
2023/09/26 06:12:37;;;;;;;53.78;50.60;;;16.20;99.90;;;;;;5031708;28;20048;-72
2023/09/26 06:15:07;;;;;;;55.47;51.70;;;16.30;99.90;;;;;;5050766;28;20049;-71
2023/09/26 06:17:33;;;;;;;61.03;56.50;;;16.10;99.90;;;;;;5052875;28;20025;-72
2023/09/26 06:19:59;;;;;;;63.40;59.25;;;16.10;99.90;;;;;;5058828;28;20040;-72
2023/09/26 06:22:25;;;;;;;60.03;56.28;;;16.30;99.90;;;;;;5053749;28;20033;-72
2023/09/26 06:24:51;;;;;;;59.65;56.20;;;16.30;99.90;;;;;;5053244;28;20387;-72
2023/09/26 06:27:17;;;;;;;63.15;59.03;;;16.50;99.90;;;;;;5051783;28;20040;-72
2023/09/26 06:29:44;;;;;;;62.90;59.22;;;16.50;99.90;;;;;;5055752;28;20049;-72
2023/09/26 06:32:10;;;;;;;53.38;50.25;;;16.50;99.90;;;;;;5050856;28;20423;-72
2023/09/26 06:34:39;;;;;;;50.70;47.67;;;16.50;99.90;;;;;;5053205;28;20044;-72
2023/09/26 06:37:05;;;;;;;56.72;53.55;;;16.60;99.90;;;;;;5051713;28;20403;-72
2023/09/26 06:39:31;;;;;;;51.92;48.75;;;16.60;99.90;;;;;;5052888;28;20029;-72
2023/09/26 06:41:57;;;;;;;48.33;45.42;;;16.50;99.90;;;;;;5056088;28;20036;-72
2023/09/26 06:44:23;;;;;;;43.78;41.35;;;16.30;99.90;;;;;;5061284;28;20033;-72
2023/09/26 06:46:51;;;;;;;50.53;47.72;;;16.10;99.90;;;;;;5051871;28;20036;-72
2023/09/26 06:49:17;;;;;;;45.67;43.05;;;16.10;99.90;;;;;;5052494;28;20049;-72
2023/09/26 06:51:43;;;;;;;55.33;52.33;;;16.10;99.90;;;;;;5051676;28;20475;-72
2023/09/26 06:54:09;;;;;;;50.83;48.03;;;16.20;99.90;;;;;;5054736;28;20029;-72
2023/09/26 06:56:36;;;;;;;49.35;46.63;;;16.40;99.90;;;;;;5058221;28;20135;-72
2023/09/26 06:59:02;;;;;;;53.22;50.33;;;16.50;99.90;;;;;;5049982;28;20483;-72
2023/09/26 07:01:28;;;;;;;55.17;52.28;;;16.50;99.90;;;;;;5051440;28;20399;-72
2023/09/26 07:03:54;;;;;;;55.72;52.70;;;16.40;99.90;;;;;;5051500;28;20040;-72
2023/09/26 07:06:20;;;;;;;59.42;56.20;;;16.40;99.90;;;;;;5043809;28;20025;-72
2023/09/26 07:08:47;;;;;;;45.50;43.05;;;16.50;99.90;;;;;;5050510;28;20392;-72
2023/09/26 07:11:13;;;;;;;44.10;41.70;;;16.50;99.90;;;;;;5051563;28;20025;-72
2023/09/26 07:13:39;;;;;;;37.80;35.67;;;16.50;99.90;;;;;;5050323;28;20037;-72
2023/09/26 07:16:07;;;;;;;37.88;35.88;;;16.60;99.90;;;;;;5044748;28;20033;-72
2023/09/26 07:18:35;;;;;;;41.13;38.92;;;16.80;99.90;;;;;;5047025;28;20056;-73
2023/09/26 07:21:04;;;;;;;48.78;46.03;;;16.80;99.90;;;;;;5050639;28;20037;-69
2023/09/26 07:23:32;;;;;;;70.68;66.95;;;16.70;99.90;;;;;;5039477;28;20060;-71
2023/09/26 07:26:12;;;;;;;61.60;58.28;;;16.80;99.90;;;;;;5044266;28;20036;-71
2023/09/26 07:28:40;;;;;;;35.40;33.43;;;17.00;99.90;;;;;;5051495;28;20052;-71
2023/09/26 07:31:06;;;;;;;49.33;46.65;;;17.00;99.90;;;;;;5042710;28;20038;-71
2023/09/26 07:33:32;;;;;;;45.22;42.47;;;16.90;99.90;;;;;;5028600;28;20049;-71
2023/09/26 07:35:58;;;;;;;58.85;55.63;;;16.90;99.90;;;;;;5030117;28;20041;-71
2023/09/26 07:38:25;;;;;;;51.58;48.97;;;17.10;99.90;;;;;;5031837;28;20033;-71
2023/09/26 07:40:51;;;;;;;49.15;46.53;;;17.20;99.90;;;;;;5030816;28;20464;-71
2023/09/26 07:43:17;;;;;;;46.72;44.22;;;17.10;99.90;;;;;;5029350;28;20034;-72
2023/09/26 07:45:43;;;;;;;57.60;54.50;;;17.00;99.90;;;;;;5030520;28;20038;-71
2023/09/26 07:48:09;;;;;;;59.40;56.35;;;17.00;99.90;;;;;;5031213;28;20038;-71
2023/09/26 07:50:36;;;;;;;60.08;56.80;;;16.90;99.90;;;;;;5031311;28;20563;-71
2023/09/26 07:53:02;;;;;;;50.33;47.58;;;17.00;99.90;;;;;;5031389;28;20025;-71
2023/09/26 07:55:28;;;;;;;62.22;58.83;;;17.20;99.90;;;;;;5031502;28;20037;-72
2023/09/26 07:57:54;;;;;;;54.90;51.75;;;17.30;99.90;;;;;;5032046;28;20037;-71
2023/09/26 08:00:21;;;;;;;52.53;49.60;;;17.50;99.90;;;;;;5033085;28;20033;-72
2023/09/26 08:02:47;;;;;;;51.80;48.60;;;17.40;99.90;;;;;;5051088;28;20048;-72
2023/09/26 08:05:13;;;;;;;57.88;54.55;;;17.50;99.90;;;;;;5050936;28;20033;-72
2023/09/26 08:07:42;;;;;;;65.93;62.13;;;17.50;99.90;;;;;;5051332;28;20033;-71
2023/09/26 08:10:09;;;;;;;63.60;59.85;;;17.50;99.90;;;;;;5050985;28;20496;-72
2023/09/26 08:12:39;;;;;;;69.55;65.78;;;17.50;99.90;;;;;;5051499;28;20025;-71
2023/09/26 08:15:05;;;;;;;72.20;68.23;;;17.60;99.90;;;;;;5050719;28;20048;-71
2023/09/26 08:17:32;;;;;;;86.25;81.93;;;17.70;99.90;;;;;;5050382;28;20650;-72
2023/09/26 08:19:58;;;;;;;83.00;78.50;;;17.80;99.90;;;;;;5051143;28;20029;-72
2023/09/26 08:22:24;;;;;;;97.13;92.10;;;17.70;99.90;;;;;;5047043;28;20040;-71
2023/09/26 08:24:50;;;;;;;106.00;100.45;;;17.80;99.90;;;;;;5050621;28;20033;-72
2023/09/26 08:27:17;;;;;;;107.80;102.22;;;18.00;99.90;;;;;;5050752;28;20048;-71
2023/09/26 08:29:43;;;;;;;90.32;85.65;;;18.00;99.90;;;;;;5051085;28;20068;-71
2023/09/26 08:32:09;;;;;;;62.22;58.67;;;18.20;99.90;;;;;;5032604;28;20034;-72
2023/09/26 08:34:35;;;;;;;54.95;51.92;;;18.30;99.90;;;;;;5026030;28;20029;-71
2023/09/26 08:37:02;;;;;;;57.72;54.45;;;18.40;99.90;;;;;;5028909;28;20033;-70
2023/09/26 08:39:28;;;;;;;64.70;60.92;;;18.30;99.90;;;;;;5031305;28;20388;-70
2023/09/26 08:41:54;;;;;;;73.88;69.85;;;18.30;99.90;;;;;;5031002;28;20037;-72
2023/09/26 08:44:20;;;;;;;76.47;72.47;;;18.40;99.90;;;;;;5029915;28;20034;-72
2023/09/26 08:46:46;;;;;;;84.97;80.43;;;18.40;99.90;;;;;;5042318;28;20056;-72
2023/09/26 08:49:12;;;;;;;81.65;77.50;;;18.40;99.90;;;;;;5033070;28;20407;-72
2023/09/26 08:51:38;;;;;;;71.97;68.07;;;18.50;99.90;;;;;;5051986;28;20029;-71
2023/09/26 08:54:05;;;;;;;79.60;75.22;;;18.60;99.90;;;;;;5054608;28;20048;-72
2023/09/26 08:56:35;;;;;;;76.40;72.38;;;18.60;99.90;;;;;;5054257;28;20037;-72
2023/09/26 08:59:02;;;;;;;55.63;52.67;;;18.70;99.90;;;;;;5054649;28;20037;-72
2023/09/26 09:01:28;;;;;;;56.17;53.05;;;18.80;99.90;;;;;;5052845;28;20041;-72
2023/09/26 09:03:54;;;;;;;58.65;55.50;;;18.80;99.90;;;;;;5051020;28;20045;-72
2023/09/26 09:06:21;;;;;;;54.53;51.72;;;18.80;99.90;;;;;;5053460;28;20092;-72
2023/09/26 09:08:47;;;;;;;62.13;58.60;;;18.90;99.90;;;;;;5050805;28;20028;-72
2023/09/26 09:11:13;;;;;;;59.80;56.55;;;19.00;99.90;;;;;;5053637;28;20025;-72
2023/09/26 09:13:39;;;;;;;56.45;53.28;;;19.10;99.90;;;;;;5053325;28;20390;-72
2023/09/26 09:16:13;;;;;;;59.97;56.53;;;19.30;99.90;;;;;;5042882;28;20037;-71
2023/09/26 09:18:43;;;;;;;58.20;54.97;;;19.30;99.90;;;;;;5033946;28;20033;-73
2023/09/26 09:21:32;;;;;;;56.42;53.25;;;19.50;99.90;;;;;;5033570;28;20021;-71
2023/09/26 09:24:03;;;;;;;60.88;57.53;;;19.60;99.90;;;;;;5032379;28;20041;-72
2023/09/26 09:26:34;;;;;;;51.42;48.15;;;19.80;99.90;;;;;;5033459;28;20029;-72
2023/09/26 09:29:17;;;;;;;59.20;55.95;;;19.90;99.90;;;;;;5032276;28;20048;-72
2023/09/26 09:31:43;;;;;;;51.65;48.80;;;20.10;99.90;;;;;;5022999;28;20388;-72
2023/09/26 09:34:09;;;;;;;63.13;59.83;;;20.20;99.90;;;;;;5032047;28;20014;-72
2023/09/26 09:36:40;;;;;;;68.18;64.50;;;20.40;99.90;;;;;;5031688;28;20049;-72
2023/09/26 09:39:09;;;;;;;116.68;110.65;;;20.40;99.90;;;;;;5031829;28;20029;-72
2023/09/26 09:41:38;;;;;;;131.20;124.50;;;20.60;99.90;;;;;;5032114;28;20624;-72
2023/09/26 09:44:05;;;;;;;112.03;106.13;;;20.60;99.90;;;;;;5030168;28;20041;-72
2023/09/26 09:46:38;;;;;;;133.68;126.45;;;20.60;99.90;;;;;;5025309;28;20025;-72
2023/09/26 09:49:05;;;;;;;130.88;124.25;;;20.70;99.90;;;;;;5031345;28;20041;-71
2023/09/26 09:51:31;;;;;;;122.47;115.70;;;20.80;99.90;;;;;;5014517;28;20056;-72
2023/09/26 09:53:58;;;;;;;95.43;90.45;;;20.90;99.90;;;;;;5015142;28;20045;-72
2023/09/26 09:56:24;;;;;;;104.50;99.22;;;20.90;99.90;;;;;;5021846;28;20037;-71
2023/09/26 09:58:51;;;;;;;129.00;122.50;;;20.90;99.90;;;;;;5032094;28;20029;-72
2023/09/26 10:01:20;;;;;;;123.03;116.68;;;21.00;99.90;;;;;;5032213;28;20040;-72
2023/09/26 10:03:48;;;;;;;131.60;124.88;;;21.00;99.90;;;;;;5030650;28;20059;-72
2023/09/26 10:06:14;;;;;;;157.07;148.93;;;20.90;99.90;;;;;;5032901;28;20029;-72
2023/09/26 10:08:41;;;;;;;137.00;130.23;;;21.00;99.90;;;;;;5033373;28;20464;-72
2023/09/26 10:11:07;;;;;;;161.40;153.13;;;21.10;99.90;;;;;;5031424;28;20480;-72
2023/09/26 10:13:33;;;;;;;190.52;180.80;;;21.30;99.90;;;;;;5031001;28;20037;-72
2023/09/26 10:16:17;;;;;;;194.27;184.43;;;21.20;99.90;;;;;;5029632;28;20040;-72
2023/09/26 10:18:44;;;;;;;211.57;200.60;;;21.30;99.90;;;;;;5012287;28;20046;-72
2023/09/26 10:21:30;;;;;;;240.00;227.65;;;21.40;99.90;;;;;;5021641;28;20037;-72
2023/09/26 10:24:08;;;;;;;241.02;228.93;;;21.50;99.90;;;;;;5032892;28;20045;-72
2023/09/26 10:26:39;;;;;;;259.60;246.25;;;21.50;99.90;;;;;;5030975;28;20519;-72
2023/09/26 10:29:12;;;;;;;267.42;253.65;;;21.50;99.90;;;;;;5016320;28;20038;-72
2023/09/26 10:31:55;;;;;;;277.98;263.83;;;21.60;99.90;;;;;;5022924;28;20040;-72
2023/09/26 10:34:42;;;;;;;258.52;245.73;;;21.60;99.90;;;;;;5031729;28;20038;-70
2023/09/26 10:37:10;;;;;;;283.52;269.33;;;21.60;99.90;;;;;;5028939;28;20042;-72
2023/09/26 10:39:38;;;;;;;308.15;292.17;;;21.60;99.90;;;;;;5031235;28;20033;-72
2023/09/26 10:42:10;;;;;;;294.20;279.45;;;21.60;99.90;;;;;;5031291;28;20042;-72
2023/09/26 10:44:37;;;;;;;300.95;285.83;;;21.70;99.90;;;;;;5031718;28;20030;-72
2023/09/26 10:47:04;;;;;;;297.67;282.77;;;21.70;99.90;;;;;;5031220;28;20033;-72
2023/09/26 10:49:32;;;;;;;316.02;299.98;;;21.80;99.90;;;;;;5032232;28;20053;-72
2023/09/26 10:52:01;;;;;;;338.33;320.88;;;21.70;99.90;;;;;;5031605;28;20052;-72
2023/09/26 10:54:32;;;;;;;320.73;304.60;;;21.90;99.90;;;;;;5030184;28;20052;-72
2023/09/26 10:56:59;;;;;;;365.30;346.48;;;22.00;99.90;;;;;;5026339;28;20511;-72
2023/09/26 10:59:29;;;;;;;357.40;339.05;;;22.00;99.90;;;;;;5010798;28;20042;-72
2023/09/26 11:01:56;;;;;;;401.00;379.77;;;22.20;99.90;;;;;;5025593;28;20033;-72
2023/09/26 11:04:31;;;;;;;371.38;352.00;;;22.30;99.90;;;;;;5031297;28;20040;-71
2023/09/26 11:07:00;;;;;;;400.02;378.83;;;22.50;99.90;;;;;;5026593;28;20049;-72
2023/09/26 11:09:27;;;;;;;429.75;406.42;;;22.50;99.90;;;;;;5026909;28;20393;-72
2023/09/26 11:11:55;;;;;;;441.85;418.02;;;22.70;99.90;;;;;;5031020;28;20365;-72
2023/09/26 11:14:24;;;;;;;417.80;395.52;;;22.60;99.90;;;;;;5030570;28;20062;-71
2023/09/26 11:16:53;;;;;;;431.42;408.25;;;22.60;99.90;;;;;;5029208;28;20041;-73
2023/09/26 11:19:23;;;;;;;440.35;416.67;;;22.70;99.90;;;;;;5030046;28;20396;-72
2023/09/26 11:21:49;;;;;;;398.88;377.50;;;22.60;99.90;;;;;;5030906;28;20053;-72
2023/09/26 11:24:22;;;;;;;419.17;397.20;;;22.60;99.90;;;;;;5031669;28;20029;-72
2023/09/26 11:26:48;;;;;;;404.95;383.50;;;22.70;99.90;;;;;;5030586;28;20076;-72
2023/09/26 11:29:16;;;;;;;425.20;403.00;;;22.80;99.90;;;;;;5030040;28;20025;-72
2023/09/26 11:31:43;;;;;;;397.10;376.15;;;22.70;99.90;;;;;;5030453;28;20038;-72
2023/09/26 11:34:10;;;;;;;392.92;371.70;;;22.60;99.90;;;;;;5031371;28;20032;-72
2023/09/26 11:36:39;;;;;;;399.67;378.58;;;22.70;99.90;;;;;;5030404;28;20037;-72
2023/09/26 11:39:11;;;;;;;404.15;382.85;;;22.80;99.90;;;;;;5030866;28;20040;-71
2023/09/26 11:41:37;;;;;;;464.95;439.90;;;22.90;99.90;;;;;;5030102;28;20420;-72
2023/09/26 11:44:10;;;;;;;453.23;428.65;;;22.90;99.90;;;;;;5031110;28;20036;-72
2023/09/26 11:46:41;;;;;;;479.70;453.50;;;23.10;99.90;;;;;;5030810;28;20048;-72
2023/09/26 11:49:07;;;;;;;473.40;447.67;;;23.10;99.90;;;;;;5031763;28;20032;-72
2023/09/26 11:51:34;;;;;;;478.75;452.73;;;23.10;99.90;;;;;;5029596;28;20042;-72
2023/09/26 11:54:00;;;;;;;463.60;437.95;;;23.10;99.90;;;;;;5027900;28;20029;-72
2023/09/26 11:56:29;;;;;;;469.58;443.40;;;23.20;99.90;;;;;;5030639;28;20037;-72
2023/09/26 11:58:55;;;;;;;473.02;446.65;;;23.40;99.90;;;;;;5031741;28;20060;-72
2023/09/26 12:01:21;;;;;;;496.17;469.15;;;23.30;99.90;;;;;;5030451;28;20048;-72
2023/09/26 12:03:47;;;;;;;494.10;466.48;;;23.50;99.90;;;;;;5030692;28;20034;-73
2023/09/26 12:06:13;;;;;;;511.20;482.80;;;23.60;99.90;;;;;;5028349;28;20041;-72
2023/09/26 12:08:40;;;;;;;529.13;498.98;;;23.60;99.90;;;;;;5029641;28;20045;-72
2023/09/26 12:11:06;;;;;;;525.97;496.50;;;23.60;99.90;;;;;;5027919;28;20045;-72
2023/09/26 12:13:32;;;;;;;563.67;530.67;;;23.60;99.90;;;;;;5026576;28;20060;-73
2023/09/26 12:15:58;;;;;;;567.72;534.47;;;23.70;99.90;;;;;;5023414;28;20034;-72
2023/09/26 12:18:24;;;;;;;563.30;530.65;;;23.70;99.90;;;;;;5025956;28;20021;-72
2023/09/26 12:20:55;;;;;;;555.75;523.30;;;23.80;99.90;;;;;;5031001;28;20387;-72
2023/09/26 12:23:21;;;;;;;565.40;531.65;;;24.00;99.90;;;;;;5027887;28;20045;-72